Stockton, NY (14784)

7:00 PM EDT on August 23, 2017 (GMT -0400)
Cassadaga Lakes | | Change Station
Active Advisory: Beach Hazard Statement

Elev 1327 ft 42.35 °N, 79.32 °W | Updated 8 minutes ago

Partly Cloudy
Partly Cloudy
66.0 °F
Feels Like 66.0 °F
N
3.2
Wind Variable Wind from West

Today
High -- | Low -- °F
--% Chance of Precip.
Yesterday
High -- | Low -- °F
Precip. -- in
Pressure 29.91 in
Visibility 10.0 miles
Clouds Few 3500 ft
Mostly Cloudy 7000 ft
Overcast 10000 ft
Dew Point 58 °F
Humidity 75%
Rainfall 0.00 in
Snow Depth Not available.
6:33 AM 8:05 PM
Waxing Crescent, 6% visible
METAR KDKK 232253Z AUTO 25009G17KT 10SM FEW035 BKN070 OVC100 21/13 A2991 RMK AO2 SLP127 T02060133 $
Pressure 29.91 in
Visibility 10.0 miles
Clouds Few 3500 ft
Mostly Cloudy 7000 ft
Overcast 10000 ft
Dew Point 58 °F
Humidity 75%
Rainfall 0.00 in
Snow Depth Not available.
6:33 AM 8:05 PM
Waxing Crescent, 6% visible
METAR KDKK 232253Z AUTO 25009G17KT 10SM FEW035 BKN070 OVC100 21/13 A2991 RMK AO2 SLP127 T02060133 $

Get Your Daily Forecast Email!

Thanks for signing up!

Be on the lookout for a verification email in your inbox.

You'll start receiving severe weather alerts in your inbox..

×

10-Day Weather Forecast

Almanac

Astronomy

Aug. 23, 2017 Rise Set
Actual Time
Civil Twilight
Nautical Twilight
Astronomical Twilight
Moon
Length of Visible Light
Length of Day
Tomorrow will be .
, % of the Moon is Illuminated

Today's Extremes

State Highs State Lows

Community

WunderPhotos

Category 6

Welcome to Category 6. This is the collective home for Weather Underground's featured writeups by Dr. Jeff Masters (right), Bob Henson (left), Chris Burt, and other regular contributors.

Nearby

Air Quality

  Air Quality AQ Index Pollutant
Not available.

Snow Depth

Station Depth Elevation

Earthquake Activity

City Distance Mag. Time & Date
Minimum magnitude displayed is 2.5.

Coastal Water Temperatures

Place Temperature

Stations

Nearby Weather Stations

Station Location Temp. Windchill Dew Point Humidity Wind Precip. Elev Updated Type
                   

Watches & Warnings

Beach Hazard Statement
Issued: 5:16 PM EDT Aug. 23, 2017 – National Weather Service

... Beach hazards statement remains in effect until 8 PM EDT this
evening...

* locations... beaches of Chautauqua and southern Erie counties.

* Timing... through early this evening.

* Impacts... strong currents and dangerous swimming conditions.

Precautionary/preparedness actions...

A beach hazards statement is issued when there is a high swim
risk. This means life threatening waves and currents are
expected. Stay out of the water and stay away from dangerous
areas like piers and breakwalls.